Time;durP1;ratioP1;P1;durP2;ratioP2;P2;SDS_P1;SDS_P2;PMS_P1;PMS_P2;Temp;Humidity;BMP_temperature;BMP_pressure;BME280_temperature;BME280_humidity;BME280_pressure;Samples;Min_cycle;Max_cycle;Signal;HPM_P1;HPM_P2
2023/02/20 00:01:25;;;;;;;4.82;2.30;;;;;;;3.88;100.00;101341.53;5004837;28;20061;-68
2023/02/20 00:03:50;;;;;;;5.60;2.00;;;;;;;3.87;100.00;101339.72;5006378;28;20038;-69
2023/02/20 00:06:16;;;;;;;6.75;2.67;;;;;;;3.83;100.00;101353.53;5001245;28;20046;-69
2023/02/20 00:08:41;;;;;;;6.78;2.65;;;;;;;3.86;100.00;101343.19;5000427;28;20456;-69
2023/02/20 00:11:06;;;;;;;8.68;2.67;;;;;;;3.89;100.00;101338.06;5009509;28;20458;-70
2023/02/20 00:13:32;;;;;;;6.53;2.20;;;;;;;3.94;100.00;101333.88;5007574;28;20084;-68
2023/02/20 00:15:57;;;;;;;5.90;2.67;;;;;;;4.01;100.00;101331.47;5000442;28;20034;-69
2023/02/20 00:18:22;;;;;;;6.18;2.13;;;;;;;4.06;100.00;101319.44;5028428;22;20016;-77
2023/02/20 00:20:48;;;;;;;5.38;2.30;;;;;;;4.09;100.00;101316.97;5027675;28;20034;-77
2023/02/20 00:23:13;;;;;;;6.90;2.50;;;;;;;4.12;100.00;101310.09;5028369;28;20029;-77
2023/02/20 00:25:38;;;;;;;6.25;2.08;;;;;;;4.05;100.00;101297.66;5025438;28;20076;-77
2023/02/20 00:28:04;;;;;;;6.18;2.38;;;;;;;4.03;100.00;101295.84;5026868;28;20449;-77
2023/02/20 00:30:29;;;;;;;5.97;2.20;;;;;;;3.92;100.00;101303.34;5026648;28;20563;-77
2023/02/20 00:32:55;;;;;;;6.40;2.65;;;;;;;3.82;100.00;101293.41;5030455;28;20522;-78
2023/02/20 00:35:23;;;;;;;5.43;2.00;;;;;;;3.71;100.00;101298.28;5014215;28;20103;-77
2023/02/20 00:37:49;;;;;;;5.32;1.83;;;;;;;3.61;100.00;101304.03;5016788;28;20120;-77
2023/02/20 00:40:17;;;;;;;4.82;2.03;;;;;;;3.51;100.00;101293.28;5009681;28;20587;-78
2023/02/20 00:42:43;;;;;;;6.43;2.22;;;;;;;3.40;100.00;101276.34;5017324;28;20073;-77
2023/02/20 00:45:10;;;;;;;7.88;2.72;;;;;;;3.23;100.00;101274.88;5026421;28;20045;-77
2023/02/20 00:47:36;;;;;;;9.77;2.25;;;;;;;3.05;100.00;101275.97;5024444;28;20029;-77
2023/02/20 00:50:01;;;;;;;5.82;2.83;;;;;;;2.93;100.00;101275.53;5019309;28;20514;-77
2023/02/20 00:52:27;;;;;;;4.55;2.40;;;;;;;2.79;100.00;101264.59;5016354;28;20504;-77
2023/02/20 00:54:52;;;;;;;4.43;2.13;;;;;;;2.69;100.00;101261.59;5029567;28;20120;-77
2023/02/20 00:57:17;;;;;;;6.05;2.35;;;;;;;2.50;100.00;101267.84;5029649;28;20064;-77
2023/02/20 00:59:43;;;;;;;7.07;2.75;;;;;;;2.34;100.00;101267.25;5029974;28;20122;-77
2023/02/20 01:02:09;;;;;;;6.25;2.80;;;;;;;2.29;100.00;101268.78;5027533;28;20037;-77
2023/02/20 01:04:35;;;;;;;7.82;2.70;;;;;;;2.29;100.00;101266.16;5016687;28;20034;-77
2023/02/20 01:07:01;;;;;;;4.90;2.55;;;;;;;2.28;100.00;101277.44;5006154;28;20037;-76
2023/02/20 01:09:27;;;;;;;6.10;2.70;;;;;;;2.28;100.00;101268.69;5016376;28;20041;-77
2023/02/20 01:11:53;;;;;;;5.22;2.92;;;;;;;2.26;100.00;101266.06;5031198;28;20030;-77
2023/02/20 01:14:19;;;;;;;8.15;3.10;;;;;;;2.21;100.00;101264.97;5026817;28;20036;-77
2023/02/20 01:16:52;;;;;;;7.97;3.05;;;;;;;2.19;100.00;101262.31;5023640;28;20038;-77
2023/02/20 01:19:19;;;;;;;7.28;2.72;;;;;;;2.20;100.00;101260.59;5027596;28;20044;-77
2023/02/20 01:21:44;;;;;;;6.35;3.03;;;;;;;2.23;100.00;101265.03;5007744;28;20080;-77
2023/02/20 01:24:10;;;;;;;7.90;2.72;;;;;;;2.25;100.00;101256.44;5016223;28;20064;-77
2023/02/20 01:26:35;;;;;;;7.15;3.47;;;;;;;2.28;100.00;101251.38;5012918;28;20030;-77
2023/02/20 01:29:02;;;;;;;6.28;2.72;;;;;;;2.29;100.00;101249.66;5025667;28;20038;-77
2023/02/20 01:31:28;;;;;;;6.53;3.10;;;;;;;2.29;100.00;101240.13;5013378;28;20037;-77
2023/02/20 01:33:54;;;;;;;10.13;3.30;;;;;;;2.30;100.00;101246.22;5012863;28;20034;-77
2023/02/20 01:36:19;;;;;;;9.50;3.25;;;;;;;2.31;100.00;101256.69;5016237;28;20522;-77
2023/02/20 01:38:47;;;;;;;5.90;2.75;;;;;;;2.38;100.00;101263.94;5018412;28;20049;-77
2023/02/20 01:41:13;;;;;;;7.40;3.70;;;;;;;2.46;100.00;101245.09;5006815;28;20041;-77
2023/02/20 01:43:38;;;;;;;5.85;3.38;;;;;;;2.49;100.00;101240.91;5030698;28;20064;-77
2023/02/20 01:46:25;;;;;;;7.63;3.70;;;;;;;2.61;100.00;101230.91;5014895;28;20141;-77
2023/02/20 01:49:09;;;;;;;7.43;3.70;;;;;;;2.68;100.00;101232.03;5024103;28;20066;-77
2023/02/20 01:51:39;;;;;;;5.78;3.38;;;;;;;2.66;100.00;101223.28;5022454;28;20034;-77
2023/02/20 01:54:07;;;;;;;7.68;3.30;;;;;;;2.63;100.00;101218.84;5028267;28;20109;-77
2023/02/20 01:56:33;;;;;;;6.28;3.83;;;;;;;2.55;100.00;101229.81;5026223;28;20517;-77
2023/02/20 01:58:59;;;;;;;6.78;4.10;;;;;;;2.48;100.00;101233.88;5013888;28;20034;-77
2023/02/20 02:01:24;;;;;;;6.82;3.80;;;;;;;2.48;100.00;101226.06;5018241;28;20103;-77
2023/02/20 02:03:56;;;;;;;7.60;4.18;;;;;;;2.55;100.00;101212.44;5015237;28;20113;-77
2023/02/20 02:06:21;;;;;;;7.40;3.75;;;;;;;2.71;100.00;101205.19;5023510;28;20029;-77
2023/02/20 02:08:47;;;;;;;6.75;4.22;;;;;;;2.85;100.00;101201.34;5028350;28;20120;-78
2023/02/20 02:11:16;;;;;;;8.88;3.90;;;;;;;3.00;100.00;101207.13;5021660;28;20044;-77
2023/02/20 02:13:42;;;;;;;6.72;3.40;;;;;;;3.13;100.00;101208.44;5028149;28;20072;-77
2023/02/20 02:16:28;;;;;;;8.02;3.70;;;;;;;3.26;100.00;101202.81;5025484;28;20588;-77
2023/02/20 02:19:42;;;;;;;7.57;4.20;;;;;;;3.43;100.00;101192.06;5026121;28;20034;-77
2023/02/20 02:22:39;;;;;;;8.02;3.85;;;;;;;3.63;100.00;101187.50;5024902;28;20408;-78
2023/02/20 02:25:23;;;;;;;7.32;3.22;;;;;;;3.77;100.00;101193.16;5029570;28;20099;-77
2023/02/20 02:28:06;;;;;;;7.05;2.97;;;;;;;3.84;100.00;101196.00;5027750;28;20034;-77
2023/02/20 02:30:58;;;;;;;5.80;3.22;;;;;;;3.97;100.00;101199.91;5025884;28;20045;-78
2023/02/20 02:33:45;;;;;;;8.17;2.90;;;;;;;4.08;100.00;101187.16;5036362;28;20045;-77
2023/02/20 02:36:39;;;;;;;7.00;3.55;;;;;;;4.16;100.00;101175.22;5029044;28;20276;-77
2023/02/20 02:39:22;;;;;;;4.50;2.20;;;;;;;4.26;100.00;101171.16;5029518;28;20530;-77
2023/02/20 02:42:08;;;;;;;6.05;2.95;;;;;;;4.32;100.00;101151.34;5031893;28;20055;-77
2023/02/20 02:44:43;;;;;;;8.23;3.70;;;;;;;4.38;100.00;101146.28;5029718;28;20045;-77
2023/02/20 02:47:21;;;;;;;5.10;2.40;;;;;;;4.46;100.00;101143.00;5028826;28;20029;-78
2023/02/20 02:49:53;;;;;;;9.23;3.10;;;;;;;4.52;100.00;101133.59;5026533;28;20053;-78
2023/02/20 02:52:37;;;;;;;;;;;;;;;4.53;100.00;101137.09;5028644;28;20033;-77
2023/02/20 02:55:04;;;;;;;5.35;2.85;;;;;;;4.55;100.00;101132.81;5030312;28;19920;-78
2023/02/20 02:57:30;;;;;;;6.88;3.08;;;;;;;4.53;100.00;101135.41;5011530;28;20025;-78
2023/02/20 03:00:01;;;;;;;7.18;2.58;;;;;;;4.54;100.00;101137.16;5016982;28;20057;-77
2023/02/20 03:02:31;;;;;;;6.07;2.80;;;;;;;4.55;100.00;101141.53;5027992;28;20036;-77
2023/02/20 03:04:59;;;;;;;5.00;2.60;;;;;;;4.53;100.00;101139.72;5016005;28;20556;-78
2023/02/20 03:07:27;;;;;;;5.93;2.65;;;;;;;4.58;100.00;101136.41;5026617;28;20397;-77
2023/02/20 03:10:02;;;;;;;6.55;3.10;;;;;;;4.67;100.00;101141.00;5026745;28;20492;-77
2023/02/20 03:12:37;;;;;;;5.90;2.90;;;;;;;4.76;100.00;101138.63;5025332;28;20029;-78
2023/02/20 03:15:34;;;;;;;5.38;2.95;;;;;;;4.84;100.00;101139.69;5014621;28;20032;-77
2023/02/20 03:18:16;;;;;;;5.50;2.92;;;;;;;4.94;100.00;101139.97;5025291;28;20033;-77
2023/02/20 03:20:46;;;;;;;5.80;3.05;;;;;;;5.00;100.00;101132.25;5009479;28;20065;-77
2023/02/20 03:23:22;;;;;;;5.88;2.78;;;;;;;5.09;100.00;101132.53;5030907;28;20492;-77
2023/02/20 03:25:54;;;;;;;4.65;2.35;;;;;;;5.12;100.00;101126.47;5016671;28;20049;-77
2023/02/20 03:28:23;;;;;;;;;;;;;;;5.14;100.00;101120.44;5030409;28;20092;-77
2023/02/20 03:31:05;;;;;;;6.32;3.35;;;;;;;5.21;100.00;101119.75;5024779;28;19909;-77
2023/02/20 03:45:03;;;;;;;5.93;3.22;;;;;;;5.40;100.00;101102.75;5012560;28;20037;-77
2023/02/20 03:47:32;;;;;;;5.32;3.50;;;;;;;5.48;100.00;101095.09;5014868;28;20029;-77
2023/02/20 03:50:00;;;;;;;4.75;2.67;;;;;;;5.45;100.00;101090.66;5023289;28;20440;-78
2023/02/20 03:52:28;;;;;;;7.22;3.30;;;;;;;5.45;100.00;101093.28;5017350;28;20116;-77
2023/02/20 03:54:53;;;;;;;6.07;2.95;;;;;;;5.46;100.00;101084.56;5018431;28;20484;-77
2023/02/20 03:57:29;;;;;;;5.80;3.10;;;;;;;5.47;100.00;101085.44;5016714;28;20033;-77
2023/02/20 04:00:01;;;;;;;6.32;2.80;;;;;;;5.54;100.00;101092.59;5023006;28;20849;-77
2023/02/20 04:02:35;;;;;;;5.40;2.80;;;;;;;5.51;100.00;101082.06;5017040;28;20500;-77
2023/02/20 04:05:09;;;;;;;6.25;3.22;;;;;;;5.56;100.00;101088.31;5014036;28;20030;-77
2023/02/20 04:07:41;;;;;;;6.07;3.20;;;;;;;5.60;100.00;101090.13;5004351;28;20061;-77
2023/02/20 04:10:14;;;;;;;5.72;2.92;;;;;;;5.63;100.00;101095.47;5009698;28;20120;-77
2023/02/20 04:12:43;;;;;;;5.20;3.03;;;;;;;5.66;100.00;101089.41;5014417;28;20042;-77
2023/02/20 04:15:12;;;;;;;6.78;3.60;;;;;;;5.64;100.00;101089.34;5015240;28;20026;-77
2023/02/20 04:17:45;;;;;;;7.72;3.97;;;;;;;5.64;100.00;101071.03;5021840;28;20121;-78
2023/02/20 04:20:12;;;;;;;6.47;4.05;;;;;;;5.69;100.00;101072.00;5018186;28;20079;-78
2023/02/20 04:22:47;;;;;;;0.20;0.20;;;;;;;5.66;100.00;101076.31;5021449;28;20582;-77
2023/02/20 04:25:36;;;;;;;0.10;0.10;;;;;;;5.70;100.00;101081.63;5038878;28;20030;-77
2023/02/20 04:28:03;;;;;;;0.10;0.10;;;;;;;5.74;100.00;101086.94;5030353;28;20439;-78
2023/02/20 04:30:33;;;;;;;0.10;0.10;;;;;;;5.78;100.00;101084.41;5020483;28;20388;-77
2023/02/20 04:32:58;;;;;;;0.10;0.10;;;;;;;5.80;100.00;101087.09;5020987;28;20057;-77
2023/02/20 04:35:24;;;;;;;0.10;0.10;;;;;;;5.79;100.00;101080.97;5018078;28;20528;-77
2023/02/20 04:37:49;;;;;;;0.10;0.10;;;;;;;5.85;100.00;101082.84;5021723;28;20067;-77
2023/02/20 04:40:17;;;;;;;0.00;0.00;;;;;;;5.84;100.00;101083.66;5017586;28;20322;-77
2023/02/20 04:42:43;;;;;;;0.00;0.00;;;;;;;5.87;100.00;101078.53;5018248;28;20026;-78
2023/02/20 04:45:08;;;;;;;0.00;0.00;;;;;;;5.90;100.00;101074.22;5031571;28;20507;-77
2023/02/20 04:47:34;;;;;;;0.00;0.00;;;;;;;5.92;100.00;101066.38;5029984;28;20041;-77
2023/02/20 04:49:59;;;;;;;0.00;0.00;;;;;;;5.99;100.00;101063.06;5015649;28;20034;-77
2023/02/20 04:52:25;;;;;;;0.00;0.00;;;;;;;5.98;100.00;101056.09;5016715;28;20454;-77
2023/02/20 04:54:52;;;;;;;0.00;0.00;;;;;;;5.97;100.00;101049.06;5017702;28;20373;-77
2023/02/20 04:57:18;;;;;;;0.00;0.00;;;;;;;6.03;100.00;101051.81;5015823;28;20029;-77
2023/02/20 04:59:43;;;;;;;0.00;0.00;;;;;;;6.03;100.00;101059.69;5016861;28;20125;-78
2023/02/20 05:02:10;;;;;;;0.00;0.00;;;;;;;6.03;100.00;101057.06;5018207;28;20116;-77
2023/02/20 05:04:35;;;;;;;0.00;0.00;;;;;;;6.07;100.00;101055.38;5032447;28;20116;-77
2023/02/20 05:07:01;;;;;;;0.00;0.00;;;;;;;6.07;100.00;101037.03;5023808;28;20041;-77
2023/02/20 05:09:26;;;;;;;0.00;0.00;;;;;;;6.11;100.00;101039.75;5030004;28;20037;-77
2023/02/20 05:11:52;;;;;;;0.00;0.00;;;;;;;6.12;100.00;101041.50;5030939;28;20059;-78
2023/02/20 05:14:19;;;;;;;0.00;0.00;;;;;;;6.18;100.00;101050.34;5033857;28;20021;-77
2023/02/20 05:16:44;;;;;;;0.00;0.00;;;;;;;6.20;100.00;101043.41;5027374;28;20034;-77
2023/02/20 05:19:11;;;;;;;0.00;0.00;;;;;;;6.21;100.00;101042.53;5030100;28;20048;-78
2023/02/20 05:24:20;;;;;;;0.00;0.00;;;;;;;6.19;100.00;101032.03;5021428;28;20038;-77
2023/02/20 05:26:45;;;;;;;0.00;0.00;;;;;;;6.18;100.00;101016.28;5028681;28;20120;-77
2023/02/20 05:29:12;;;;;;;0.00;0.00;;;;;;;6.15;100.00;101015.34;5028465;28;20029;-77
2023/02/20 05:31:41;;;;;;;0.00;0.00;;;;;;;6.22;100.00;101007.63;5026880;28;20052;-77
2023/02/20 05:34:07;;;;;;;0.00;0.00;;;;;;;6.24;100.00;101011.16;5032898;28;20029;-77
2023/02/20 05:36:32;;;;;;;0.00;0.00;;;;;;;6.21;100.00;101005.84;5032958;28;20112;-77
2023/02/20 05:38:58;;;;;;;0.00;0.00;;;;;;;6.20;100.00;101014.56;5033412;28;20634;-77
2023/02/20 05:41:23;;;;;;;0.00;0.00;;;;;;;6.20;100.00;101014.56;5034092;28;20041;-77
2023/02/20 05:43:49;;;;;;;0.00;0.00;;;;;;;6.23;100.00;101009.38;5033624;28;20029;-77
2023/02/20 05:46:15;;;;;;;0.00;0.00;;;;;;;6.27;100.00;101000.75;5031265;28;20128;-78
2023/02/20 05:48:41;;;;;;;0.00;0.00;;;;;;;6.29;100.00;101004.28;5027844;28;20496;-77
2023/02/20 05:51:06;;;;;;;0.00;0.00;;;;;;;6.33;100.00;101012.22;5037405;28;20057;-77
2023/02/20 05:53:33;;;;;;;0.00;0.00;;;;;;;6.32;100.00;101010.47;5031900;28;20037;-77
2023/02/20 05:55:58;;;;;;;0.00;0.00;;;;;;;6.36;100.00;101000.91;5017429;28;20554;-77
2023/02/20 05:58:24;;;;;;;0.00;0.00;;;;;;;6.37;100.00;100986.94;5034850;28;20041;-78
2023/02/20 06:00:50;;;;;;;0.00;0.00;;;;;;;6.46;100.00;100980.97;5035581;28;20029;-77
2023/02/20 06:03:16;;;;;;;0.00;0.00;;;;;;;6.53;100.00;100980.25;5032542;28;20044;-77
2023/02/20 06:05:42;;;;;;;0.00;0.00;;;;;;;6.53;100.00;100980.25;5028870;28;20103;-77
2023/02/20 06:08:08;;;;;;;0.00;0.00;;;;;;;6.57;100.00;100969.81;5016564;28;20034;-77
2023/02/20 06:10:33;;;;;;;0.00;0.00;;;;;;;6.55;100.00;100976.78;5024720;28;20041;-77
2023/02/20 06:12:59;;;;;;;0.00;0.00;;;;;;;6.50;100.00;100978.44;5030247;28;20060;-77
2023/02/20 06:15:25;;;;;;;0.00;0.00;;;;;;;6.57;100.00;100975.06;5030204;28;20030;-78
2023/02/20 06:17:50;;;;;;;0.00;0.00;;;;;;;6.57;100.00;100956.69;5025649;28;20451;-77
2023/02/20 06:20:16;;;;;;;0.00;0.00;;;;;;;6.58;100.00;100945.38;5050411;22;20046;-75
2023/02/20 06:22:41;;;;;;;0.00;0.00;;;;;;;6.63;100.00;100932.34;5024514;28;20094;-75
2023/02/20 06:25:07;;;;;;;0.00;0.00;;;;;;;6.64;100.00;100923.59;5024722;28;20044;-75
2023/02/20 06:27:32;;;;;;;0.00;0.00;;;;;;;6.66;100.00;100923.63;5020823;28;20038;-75
2023/02/20 06:29:58;;;;;;;0.00;0.00;;;;;;;6.69;100.00;100921.94;5021752;28;20034;-75
2023/02/20 06:32:23;;;;;;;0.00;0.00;;;;;;;6.73;100.00;100929.00;5030178;28;20026;-75
2023/02/20 06:34:49;;;;;;;0.00;0.00;;;;;;;6.77;100.00;100932.56;5030604;28;20029;-77
2023/02/20 06:37:14;;;;;;;0.00;0.00;;;;;;;6.76;100.00;100938.66;5023903;28;20108;-77
2023/02/20 06:39:41;;;;;;;0.00;0.00;;;;;;;6.78;100.00;100958.78;5008244;28;20226;-77
2023/02/20 06:42:07;;;;;;;0.00;0.00;;;;;;;6.84;100.00;100939.66;5023535;28;20132;-77
2023/02/20 06:44:32;;;;;;;0.00;0.00;;;;;;;6.87;100.00;100963.31;5024473;28;20552;-77
2023/02/20 06:46:58;;;;;;;0.00;0.00;;;;;;;6.91;100.00;100944.13;5028879;28;20034;-77
2023/02/20 06:49:24;;;;;;;0.00;0.00;;;;;;;6.93;100.00;100928.41;5022705;28;20048;-77
2023/02/20 06:51:52;;;;;;;0.00;0.00;;;;;;;6.99;100.00;100937.25;5027643;28;20029;-77
2023/02/20 06:54:20;;;;;;;0.00;0.00;;;;;;;7.01;100.00;100946.03;5013202;28;20459;-77
2023/02/20 06:56:46;;;;;;;0.00;0.00;;;;;;;7.09;100.00;100943.53;5027318;28;20514;-77
2023/02/20 06:59:13;;;;;;;0.00;0.00;;;;;;;7.13;100.00;100945.34;5024954;28;20045;-77
2023/02/20 07:01:41;;;;;;;0.00;0.00;;;;;;;7.08;100.00;100926.03;5022972;28;20037;-77
2023/02/20 07:04:15;;;;;;;0.00;0.00;;;;;;;7.10;100.00;100939.16;5024081;28;20459;-74
2023/02/20 07:06:41;;;;;;;0.00;0.00;;;;;;;7.11;100.00;100939.19;5019998;28;20038;-74
2023/02/20 07:09:06;;;;;;;0.00;0.00;;;;;;;7.13;100.00;100936.59;5023087;28;20064;-75
2023/02/20 07:11:32;;;;;;;0.00;0.00;;;;;;;7.18;99.71;100933.16;5013523;28;20034;-74
2023/02/20 07:13:57;;;;;;;0.00;0.00;;;;;;;7.22;99.12;100936.72;5023494;28;20079;-74
2023/02/20 07:16:22;;;;;;;0.00;0.00;;;;;;;7.21;98.16;100937.59;5023061;28;20417;-74
2023/02/20 07:18:48;;;;;;;0.00;0.00;;;;;;;7.29;97.73;100921.94;5012984;28;20087;-74
2023/02/20 07:21:13;;;;;;;0.00;0.00;;;;;;;7.24;96.42;100924.50;5026931;28;20079;-74
2023/02/20 07:23:38;;;;;;;0.00;0.00;;;;;;;7.29;97.06;100930.69;5020818;28;20172;-74
2023/02/20 07:26:04;;;;;;;0.00;0.00;;;;;;;7.31;96.13;100930.69;5024854;28;20041;-74
2023/02/20 07:28:29;;;;;;;0.00;0.00;;;;;;;7.28;95.80;100933.28;5022129;28;20041;-74
2023/02/20 07:30:55;;;;;;;0.00;0.00;;;;;;;7.39;95.04;100927.31;5024786;28;20509;-74
2023/02/20 07:33:20;;;;;;;0.00;0.00;;;;;;;7.53;93.86;100924.00;5023557;28;20678;-75
2023/02/20 07:35:45;;;;;;;0.00;0.00;;;;;;;7.56;92.99;100917.03;5021291;28;20519;-75
2023/02/20 07:38:11;;;;;;;0.00;0.00;;;;;;;7.64;92.44;100901.34;5011994;28;20100;-74
2023/02/20 07:40:37;;;;;;;0.00;0.00;;;;;;;7.66;91.60;100915.41;5020046;28;20038;-74
2023/02/20 07:43:02;;;;;;;0.00;0.00;;;;;;;7.61;91.43;100909.22;5024425;28;20029;-74
2023/02/20 07:45:28;;;;;;;0.00;0.00;;;;;;;7.53;91.71;100916.13;5023669;28;20041;-75
2023/02/20 07:47:53;;;;;;;0.00;0.00;;;;;;;7.61;90.82;100919.72;5022025;28;20040;-74
2023/02/20 07:50:19;;;;;;;0.00;0.00;;;;;;;7.64;90.25;100901.34;5022835;28;20178;-74
2023/02/20 07:52:45;;;;;;;0.00;0.00;;;;;;;7.67;90.40;100896.13;5023199;28;20451;-74
2023/02/20 07:55:15;;;;;;;0.00;0.00;;;;;;;7.75;91.27;100867.31;5022959;28;20038;-75
2023/02/20 07:57:41;;;;;;;0.00;0.00;;;;;;;7.79;89.50;100864.75;5019623;28;20076;-74
2023/02/20 08:00:07;;;;;;;0.00;0.00;;;;;;;7.75;88.40;100868.19;5025139;28;20187;-77
2023/02/20 08:02:38;;;;;;;0.00;0.00;;;;;;;7.71;88.20;100882.19;5024278;28;20029;-77
2023/02/20 08:05:03;;;;;;;0.00;0.00;;;;;;;7.79;89.07;100883.16;5020007;28;20040;-77
2023/02/20 08:07:28;;;;;;;0.00;0.00;;;;;;;7.81;86.30;100897.19;5026569;28;20124;-77
2023/02/20 08:09:54;;;;;;;0.00;0.00;;;;;;;7.89;86.76;100906.03;5022084;28;20037;-77
2023/02/20 08:12:19;;;;;;;0.00;0.00;;;;;;;7.97;85.10;100910.50;5027829;28;20045;-77
2023/02/20 08:14:44;;;;;;;0.00;0.00;;;;;;;7.90;85.70;100894.63;5028018;28;20044;-77
2023/02/20 08:17:11;;;;;;;0.00;0.00;;;;;;;8.02;85.39;100865.00;5024334;28;20041;-77
2023/02/20 08:19:36;;;;;;;0.10;0.10;;;;;;;8.10;83.83;100865.06;5019647;28;20048;-77
2023/02/20 08:22:01;;;;;;;0.00;0.00;;;;;;;8.35;83.13;100861.75;5027009;28;20396;-77
2023/02/20 08:24:26;;;;;;;0.00;0.00;;;;;;;8.40;82.92;100838.16;5011520;28;20534;-77
2023/02/20 08:26:52;;;;;;;0.10;0.10;;;;;;;8.47;82.50;100882.06;5019324;28;20040;-77
2023/02/20 08:29:17;;;;;;;0.10;0.10;;;;;;;8.56;82.96;100875.97;5023036;28;20034;-77
2023/02/20 08:31:42;;;;;;;0.10;0.10;;;;;;;8.56;81.43;100868.97;5026236;28;20432;-77
2023/02/20 08:34:08;;;;;;;0.00;0.00;;;;;;;8.61;81.99;100861.13;5020247;28;20382;-76
2023/02/20 08:36:34;;;;;;;0.00;0.00;;;;;;;8.73;81.61;100849.81;5021992;28;20514;-77
2023/02/20 08:38:59;;;;;;;0.10;0.10;;;;;;;8.73;80.92;100842.78;5022018;28;20048;-77
2023/02/20 08:41:25;;;;;;;0.05;0.05;;;;;;;8.81;81.49;100837.56;5019387;28;20030;-78
2023/02/20 08:43:50;;;;;;;0.00;0.00;;;;;;;8.80;80.89;100827.03;5027028;28;20454;-77
2023/02/20 08:46:15;;;;;;;0.10;0.10;;;;;;;8.92;82.09;100841.13;5024257;28;20103;-77
2023/02/20 08:48:41;;;;;;;0.15;0.15;;;;;;;8.96;80.88;100835.03;5020450;28;20034;-77
2023/02/20 08:51:07;;;;;;;0.10;0.10;;;;;;;8.97;80.40;100846.44;5022523;28;20432;-76
2023/02/20 08:53:33;;;;;;;0.20;0.20;;;;;;;8.98;nan;100828.00;5020390;28;20033;-77
2023/02/20 08:55:59;;;;;;;0.10;0.10;;;;;;;8.87;80.59;100829.69;5020482;28;20040;-77
2023/02/20 08:58:25;;;;;;;0.10;0.10;;;;;;;8.88;81.38;100825.31;5022752;28;20117;-77
2023/02/20 09:00:51;;;;;;;0.10;0.10;;;;;;;8.95;81.82;100821.84;5022300;28;20034;-77
2023/02/20 09:03:16;;;;;;;0.17;0.17;;;;;;;8.88;81.47;100828.84;5002528;28;20547;-77
2023/02/20 09:05:43;;;;;;;0.15;0.15;;;;;;;8.90;81.57;100813.91;5020799;28;20037;-76
2023/02/20 09:08:09;;;;;;;0.20;0.20;;;;;;;8.90;81.83;100813.03;5022870;28;20065;-77
2023/02/20 09:10:34;;;;;;;0.10;0.10;;;;;;;8.88;82.77;100809.53;5030576;28;20084;-77
2023/02/20 09:13:00;;;;;;;0.20;0.20;;;;;;;8.93;81.88;100810.41;5026469;28;20091;-77
2023/02/20 09:15:25;;;;;;;0.10;0.10;;;;;;;8.92;81.98;100803.41;5026487;28;20029;-77
2023/02/20 09:17:51;;;;;;;0.10;0.10;;;;;;;8.94;82.32;100801.69;5025995;28;20109;-77
2023/02/20 09:20:19;;;;;;;0.10;0.10;;;;;;;8.88;83.25;100805.16;5028667;28;20515;-77
2023/02/20 09:22:49;;;;;;;0.10;0.10;;;;;;;8.97;81.76;100792.03;5021839;28;20405;-76
2023/02/20 09:25:16;;;;;;;0.10;0.10;;;;;;;8.93;82.89;100789.38;5024912;28;20033;-77
2023/02/20 09:27:41;;;;;;;0.10;0.10;;;;;;;8.87;81.09;100806.00;5022164;28;20047;-77
2023/02/20 09:30:07;;;;;;;0.10;0.10;;;;;;;8.83;82.25;100792.81;5028749;28;20041;-77
2023/02/20 09:32:33;;;;;;;0.10;0.10;;;;;;;8.92;82.73;100774.47;5025310;28;20661;-77
2023/02/20 09:34:58;;;;;;;0.10;0.10;;;;;;;8.98;82.65;100775.34;5024089;28;20036;-77
2023/02/20 09:37:24;;;;;;;0.10;0.10;;;;;;;9.00;83.08;100772.72;5022300;28;20398;-77
2023/02/20 09:39:49;;;;;;;0.10;0.10;;;;;;;9.04;81.53;100785.06;5022056;28;20049;-77
2023/02/20 09:42:20;;;;;;;0.10;0.10;;;;;;;9.19;81.44;100769.28;5025628;28;20501;-77
2023/02/20 09:45:04;;;;;;;0.10;0.10;;;;;;;9.26;81.89;100774.59;5023202;28;20121;-77
2023/02/20 09:47:50;;;;;;;0.10;0.10;;;;;;;9.25;81.19;100759.66;5018159;28;20128;-77
2023/02/20 09:50:36;;;;;;;0.10;0.10;;;;;;;9.21;80.61;100759.63;5027903;28;20037;-77
2023/02/20 09:53:05;;;;;;;0.10;0.10;;;;;;;9.29;81.20;100764.06;5024576;28;20072;-77
2023/02/20 09:55:36;;;;;;;0.10;0.10;;;;;;;9.32;80.67;100753.53;5014515;28;20411;-77
2023/02/20 09:58:04;;;;;;;0.10;0.10;;;;;;;9.39;80.98;100755.31;5028963;28;20033;-77
2023/02/20 10:00:32;;;;;;;0.10;0.10;;;;;;;9.58;81.32;100749.19;5029201;28;20041;-77
2023/02/20 10:03:18;;;;;;;0.20;0.20;;;;;;;9.53;79.86;100726.34;5027903;28;20029;-77
2023/02/20 10:05:47;;;;;;;0.20;0.20;;;;;;;9.54;80.73;100744.81;5024622;28;20120;-77
2023/02/20 10:08:17;;;;;;;0.20;0.20;;;;;;;9.61;79.27;100761.47;5025304;28;20037;-77
2023/02/20 10:10:43;;;;;;;0.10;0.10;;;;;;;9.65;80.00;100742.19;5026188;28;20033;-77
2023/02/20 10:13:17;;;;;;;0.20;0.20;;;;;;;9.70;79.68;100718.47;5025270;28;20029;-77
2023/02/20 10:15:42;;;;;;;0.20;0.20;;;;;;;9.76;78.74;100700.00;5025532;28;20068;-77
2023/02/20 10:18:22;;;;;;;0.10;0.10;;;;;;;9.85;79.55;100705.25;5026231;28;20061;-76
2023/02/20 10:21:06;;;;;;;0.30;0.30;;;;;;;9.89;78.57;100704.41;5022226;28;20042;-77
2023/02/20 10:23:47;;;;;;;0.30;0.30;;;;;;;9.91;77.55;100692.09;5024658;28;20517;-77
2023/02/20 10:26:19;;;;;;;0.28;0.28;;;;;;;9.94;77.74;100689.44;5022191;28;20037;-77
2023/02/20 10:28:47;;;;;;;0.20;0.20;;;;;;;10.03;77.98;100692.09;5021789;28;20046;-77
2023/02/20 10:31:31;;;;;;;0.22;0.22;;;;;;;10.02;77.06;100700.88;5025277;28;20044;-77
2023/02/20 10:34:05;;;;;;;0.28;0.28;;;;;;;10.07;77.50;100683.28;5026294;28;20034;-77
2023/02/20 10:36:41;;;;;;;0.20;0.20;;;;;;;10.19;76.96;100682.41;5024432;28;20036;-77
2023/02/20 10:39:10;;;;;;;0.30;0.30;;;;;;;10.31;76.59;100668.31;5022652;28;20053;-77
2023/02/20 10:41:43;;;;;;;0.20;0.20;;;;;;;10.26;75.32;100663.00;5024356;28;20033;-77
2023/02/20 10:44:25;;;;;;;0.30;0.30;;;;;;;10.32;74.85;100641.03;5022817;28;20053;-77
2023/02/20 10:47:00;;;;;;;0.30;0.30;;;;;;;10.41;74.81;100609.38;5026130;28;20100;-77
2023/02/20 10:49:36;;;;;;;0.20;0.20;;;;;;;10.52;74.46;100627.78;5023427;28;20044;-77
2023/02/20 10:52:06;;;;;;;0.20;0.20;;;;;;;10.59;73.77;100624.25;5025327;28;20029;-77
2023/02/20 10:54:42;;;;;;;0.20;0.20;;;;;;;10.57;72.90;100618.09;5022060;28;20044;-77
2023/02/20 10:57:22;;;;;;;0.25;0.25;;;;;;;10.64;72.88;100597.84;5012576;28;20037;-77
2023/02/20 11:00:18;;;;;;;0.20;0.20;;;;;;;10.80;73.20;100614.47;5017634;28;20041;-77
2023/02/20 11:02:47;;;;;;;0.20;0.20;;;;;;;10.83;73.19;100611.78;5020469;28;20037;-76
2023/02/20 11:05:20;;;;;;;0.30;0.30;;;;;;;11.01;72.22;100610.81;5022172;28;20125;-77
2023/02/20 11:07:45;;;;;;;;;;;;;;;11.08;71.47;100617.78;5026977;28;20025;-77
2023/02/20 11:10:10;;;;;;;0.30;0.30;;;;;;;11.02;70.79;100617.84;5027124;28;19935;-77
2023/02/20 11:12:45;;;;;;;0.30;0.30;;;;;;;11.07;69.43;100597.56;5029753;28;20032;-77
2023/02/20 11:15:21;;;;;;;0.30;0.30;;;;;;;11.14;69.46;100586.06;5010303;28;20519;-77
2023/02/20 11:17:50;;;;;;;0.30;0.30;;;;;;;11.16;69.13;100590.44;5025875;28;20112;-77
2023/02/20 11:20:31;;;;;;;0.20;0.20;;;;;;;11.33;69.34;100586.78;5025630;28;20033;-77
2023/02/20 11:22:57;;;;;;;0.25;0.25;;;;;;;11.36;68.22;100582.34;5022624;28;20050;-77
2023/02/20 11:25:28;;;;;;;0.22;0.22;;;;;;;11.46;68.95;100592.84;5019376;28;20037;-77
2023/02/20 11:27:59;;;;;;;0.20;0.20;;;;;;;11.56;68.38;100581.31;5023355;28;20073;-77
2023/02/20 11:30:31;;;;;;;0.27;0.27;;;;;;;11.69;67.20;100575.00;5022887;28;20484;-77
2023/02/20 11:33:12;;;;;;;0.17;0.17;;;;;;;11.89;66.10;100563.34;5021353;28;20041;-77
2023/02/20 11:35:39;;;;;;;0.30;0.30;;;;;;;11.87;66.38;100543.97;5025593;28;20037;-77
2023/02/20 11:38:17;;;;;;;0.20;0.20;;;;;;;11.88;65.72;100545.75;5025584;28;20040;-78
2023/02/20 11:40:47;;;;;;;0.30;0.30;;;;;;;11.97;65.35;100553.56;5027657;28;20408;-77
2023/02/20 11:43:12;;;;;;;0.30;0.30;;;;;;;11.94;65.34;100522.75;5012272;28;20029;-77
2023/02/20 11:45:38;;;;;;;0.20;0.20;;;;;;;12.05;65.25;100533.19;5029237;28;20045;-77
2023/02/20 11:48:11;;;;;;;0.20;0.20;;;;;;;12.06;65.33;100517.31;5030043;28;20547;-77
2023/02/20 11:50:57;;;;;;;0.22;0.22;;;;;;;12.11;65.25;100517.25;5029158;28;20041;-78
2023/02/20 11:53:28;;;;;;;0.20;0.20;;;;;;;12.25;65.76;100509.13;5029286;28;20136;-77